sensor_id;sensor_type;location;lat;lon;timestamp;temperature;humidity
75363;DHT22;64122;51.988;5.892;2023-06-22T05:23:01;21.32;63.18
75363;DHT22;64122;51.988;5.892;2023-06-22T05:25:31;21.35;63.11
75363;DHT22;64122;51.988;5.892;2023-06-22T05:28:01;21.38;63.07
75363;DHT22;64122;51.988;5.892;2023-06-22T05:30:37;21.42;62.92
75363;DHT22;64122;51.988;5.892;2023-06-22T05:33:06;21.47;62.78
75363;DHT22;64122;51.988;5.892;2023-06-22T05:35:36;21.45;62.86
75363;DHT22;64122;51.988;5.892;2023-06-22T05:38:07;21.49;62.65
75363;DHT22;64122;51.988;5.892;2023-06-22T05:40:37;21.60;62.49
75363;DHT22;64122;51.988;5.892;2023-06-22T05:43:06;21.72;62.31
75363;DHT22;64122;51.988;5.892;2023-06-22T05:45:35;21.82;61.97
75363;DHT22;64122;51.988;5.892;2023-06-22T05:48:05;21.88;61.75
75363;DHT22;64122;51.988;5.892;2023-06-22T05:50:34;21.93;61.59
75363;DHT22;64122;51.988;5.892;2023-06-22T05:53:03;22.05;61.48
75363;DHT22;64122;51.988;5.892;2023-06-22T05:55:35;22.12;61.23
75363;DHT22;64122;51.988;5.892;2023-06-22T05:58:05;22.27;60.84
75363;DHT22;64122;51.988;5.892;2023-06-22T06:00:34;22.37;60.63
75363;DHT22;64122;51.988;5.892;2023-06-22T06:03:04;22.44;60.33
75363;DHT22;64122;51.988;5.892;2023-06-22T06:05:33;22.55;60.31
75363;DHT22;64122;51.988;5.892;2023-06-22T06:08:05;22.69;59.85
75363;DHT22;64122;51.988;5.892;2023-06-22T06:10:37;22.79;59.52
75363;DHT22;64122;51.988;5.892;2023-06-22T06:13:06;22.81;59.80
75363;DHT22;64122;51.988;5.892;2023-06-22T06:15:35;23.00;59.03
75363;DHT22;64122;51.988;5.892;2023-06-22T06:18:05;23.15;58.72
75363;DHT22;64122;51.988;5.892;2023-06-22T06:20:34;23.24;58.62
75363;DHT22;64122;51.988;5.892;2023-06-22T06:23:04;23.39;58.47
75363;DHT22;64122;51.988;5.892;2023-06-22T06:25:33;23.51;58.07
75363;DHT22;64122;51.988;5.892;2023-06-22T06:28:05;23.60;57.63
75363;DHT22;64122;51.988;5.892;2023-06-22T06:30:34;23.69;57.38
75363;DHT22;64122;51.988;5.892;2023-06-22T06:33:03;23.82;56.86
75363;DHT22;64122;51.988;5.892;2023-06-22T06:35:34;23.95;56.63
75363;DHT22;64122;51.988;5.892;2023-06-22T06:38:04;24.06;56.02
75363;DHT22;64122;51.988;5.892;2023-06-22T06:40:33;24.17;55.88
75363;DHT22;64122;51.988;5.892;2023-06-22T06:43:05;24.36;55.42
75363;DHT22;64122;51.988;5.892;2023-06-22T06:45:34;24.49;55.89
75363;DHT22;64122;51.988;5.892;2023-06-22T06:48:03;24.69;54.58
75363;DHT22;64122;51.988;5.892;2023-06-22T06:50:33;24.79;54.11
75363;DHT22;64122;51.988;5.892;2023-06-22T06:53:02;24.93;53.90
75363;DHT22;64122;51.988;5.892;2023-06-22T06:55:31;25.00;53.42
75363;DHT22;64122;51.988;5.892;2023-06-22T06:58:04;25.09;52.99
75363;DHT22;64122;51.988;5.892;2023-06-22T07:00:36;25.28;52.36
75363;DHT22;64122;51.988;5.892;2023-06-22T07:03:05;25.49;52.29
75363;DHT22;64122;51.988;5.892;2023-06-22T07:05:34;25.59;51.59
75363;DHT22;64122;51.988;5.892;2023-06-22T07:08:04;25.65;51.28
75363;DHT22;64122;51.988;5.892;2023-06-22T07:10:33;25.75;50.95
75363;DHT22;64122;51.988;5.892;2023-06-22T07:13:06;25.83;50.67
75363;DHT22;64122;51.988;5.892;2023-06-22T07:15:35;25.92;50.69
75363;DHT22;64122;51.988;5.892;2023-06-22T07:18:04;26.01;50.40
75363;DHT22;64122;51.988;5.892;2023-06-22T07:20:33;26.02;50.08
75363;DHT22;64122;51.988;5.892;2023-06-22T07:23:03;26.09;50.11
75363;DHT22;64122;51.988;5.892;2023-06-22T07:25:32;26.11;49.61
75363;DHT22;64122;51.988;5.892;2023-06-22T07:28:06;26.25;49.58
75363;DHT22;64122;51.988;5.892;2023-06-22T07:30:35;26.39;49.38
75363;DHT22;64122;51.988;5.892;2023-06-22T07:33:04;26.55;49.34
75363;DHT22;64122;51.988;5.892;2023-06-22T07:35:34;26.69;48.78
75363;DHT22;64122;51.988;5.892;2023-06-22T07:38:04;26.80;48.66
75363;DHT22;64122;51.988;5.892;2023-06-22T07:40:33;26.90;48.43
75363;DHT22;64122;51.988;5.892;2023-06-22T07:43:05;26.91;47.92
75363;DHT22;64122;51.988;5.892;2023-06-22T07:45:34;26.80;47.84
75363;DHT22;64122;51.988;5.892;2023-06-22T07:48:03;26.79;47.96
75363;DHT22;64122;51.988;5.892;2023-06-22T07:50:33;26.85;47.98
75363;DHT22;64122;51.988;5.892;2023-06-22T07:53:02;26.87;47.76
75363;DHT22;64122;51.988;5.892;2023-06-22T07:55:31;27.08;47.43
75363;DHT22;64122;51.988;5.892;2023-06-22T07:58:01;27.24;47.18
75363;DHT22;64122;51.988;5.892;2023-06-22T08:00:33;27.29;47.25
75363;DHT22;64122;51.988;5.892;2023-06-22T08:03:03;27.27;46.79
75363;DHT22;64122;51.988;5.892;2023-06-22T08:05:33;27.16;47.25
75363;DHT22;64122;51.988;5.892;2023-06-22T08:08:03;27.04;47.18
75363;DHT22;64122;51.988;5.892;2023-06-22T08:10:32;26.97;47.27
75363;DHT22;64122;51.988;5.892;2023-06-22T08:13:02;26.95;47.23
75363;DHT22;64122;51.988;5.892;2023-06-22T08:15:34;26.96;46.94
75363;DHT22;64122;51.988;5.892;2023-06-22T08:18:03;27.01;46.57
75363;DHT22;64122;51.988;5.892;2023-06-22T08:20:33;27.01;46.97
75363;DHT22;64122;51.988;5.892;2023-06-22T08:23:02;27.06;47.03
75363;DHT22;64122;51.988;5.892;2023-06-22T08:25:32;27.07;47.10
75363;DHT22;64122;51.988;5.892;2023-06-22T08:28:01;27.01;47.18
75363;DHT22;64122;51.988;5.892;2023-06-22T08:30:34;26.96;47.26
75363;DHT22;64122;51.988;5.892;2023-06-22T08:33:03;26.95;47.26
75363;DHT22;64122;51.988;5.892;2023-06-22T08:35:32;27.07;46.85
75363;DHT22;64122;51.988;5.892;2023-06-22T08:38:02;27.39;46.13
75363;DHT22;64122;51.988;5.892;2023-06-22T08:40:31;27.90;44.63
75363;DHT22;64122;51.988;5.892;2023-06-22T08:43:00;28.80;42.51
75363;DHT22;64122;51.988;5.892;2023-06-22T08:45:29;29.63;40.68
75363;DHT22;64122;51.988;5.892;2023-06-22T08:48:01;30.16;39.51
75363;DHT22;64122;51.988;5.892;2023-06-22T08:50:31;29.80;39.77
75363;DHT22;64122;51.988;5.892;2023-06-22T08:53:00;29.17;41.21
75363;DHT22;64122;51.988;5.892;2023-06-22T08:55:29;28.72;41.93
75363;DHT22;64122;51.988;5.892;2023-06-22T08:57:59;28.39;42.77
75363;DHT22;64122;51.988;5.892;2023-06-22T09:00:28;28.17;43.12
75363;DHT22;64122;51.988;5.892;2023-06-22T09:03:03;28.13;43.28
75363;DHT22;64122;51.988;5.892;2023-06-22T09:05:32;28.13;43.26
75363;DHT22;64122;51.988;5.892;2023-06-22T09:08:02;28.15;43.22
75363;DHT22;64122;51.988;5.892;2023-06-22T09:10:31;28.32;43.17
75363;DHT22;64122;51.988;5.892;2023-06-22T09:13:00;28.74;42.18
75363;DHT22;64122;51.988;5.892;2023-06-22T09:15:32;29.94;39.72
75363;DHT22;64122;51.988;5.892;2023-06-22T09:18:04;31.37;37.06
75363;DHT22;64122;51.988;5.892;2023-06-22T09:20:33;31.97;35.33
75363;DHT22;64122;51.988;5.892;2023-06-22T09:23:03;31.45;36.06
75363;DHT22;64122;51.988;5.892;2023-06-22T09:25:32;30.92;36.67
75363;DHT22;64122;51.988;5.892;2023-06-22T09:28:01;30.46;37.51
75363;DHT22;64122;51.988;5.892;2023-06-22T09:30:31;30.06;37.96
75363;DHT22;64122;51.988;5.892;2023-06-22T09:33:00;29.80;38.46
75363;DHT22;64122;51.988;5.892;2023-06-22T09:35:32;29.52;38.73
75363;DHT22;64122;51.988;5.892;2023-06-22T09:38:01;29.28;39.10
75363;DHT22;64122;51.988;5.892;2023-06-22T09:40:31;29.03;39.07
75363;DHT22;64122;51.988;5.892;2023-06-22T09:43:06;28.83;39.20
75363;DHT22;64122;51.988;5.892;2023-06-22T09:45:35;28.68;39.40
75363;DHT22;64122;51.988;5.892;2023-06-22T09:48:05;28.56;39.27
75363;DHT22;64122;51.988;5.892;2023-06-22T09:50:38;28.42;39.80
75363;DHT22;64122;51.988;5.892;2023-06-22T09:53:07;28.40;40.04
75363;DHT22;64122;51.988;5.892;2023-06-22T09:55:37;28.33;39.95
75363;DHT22;64122;51.988;5.892;2023-06-22T09:58:06;28.21;39.43
75363;DHT22;64122;51.988;5.892;2023-06-22T10:00:36;28.09;39.51
75363;DHT22;64122;51.988;5.892;2023-06-22T10:03:07;27.94;39.82
75363;DHT22;64122;51.988;5.892;2023-06-22T10:05:39;27.84;40.21
75363;DHT22;64122;51.988;5.892;2023-06-22T10:08:08;27.66;40.91
75363;DHT22;64122;51.988;5.892;2023-06-22T10:10:37;27.64;40.30
75363;DHT22;64122;51.988;5.892;2023-06-22T10:13:09;27.45;40.15
75363;DHT22;64122;51.988;5.892;2023-06-22T10:15:39;27.34;40.46
75363;DHT22;64122;51.988;5.892;2023-06-22T10:18:09;27.26;40.86
75363;DHT22;64122;51.988;5.892;2023-06-22T10:20:40;27.21;41.29
75363;DHT22;64122;51.988;5.892;2023-06-22T10:23:09;27.09;41.79
75363;DHT22;64122;51.988;5.892;2023-06-22T10:25:39;27.15;41.68
75363;DHT22;64122;51.988;5.892;2023-06-22T10:28:08;27.09;41.68
75363;DHT22;64122;51.988;5.892;2023-06-22T10:30:38;27.08;41.87
75363;DHT22;64122;51.988;5.892;2023-06-22T10:33:09;27.11;42.10
75363;DHT22;64122;51.988;5.892;2023-06-22T10:35:41;27.19;41.87
75363;DHT22;64122;51.988;5.892;2023-06-22T10:38:10;27.21;42.25
75363;DHT22;64122;51.988;5.892;2023-06-22T10:40:39;27.38;42.03
75363;DHT22;64122;51.988;5.892;2023-06-22T10:43:09;27.46;41.52
75363;DHT22;64122;51.988;5.892;2023-06-22T10:45:38;27.41;40.99
75363;DHT22;64122;51.988;5.892;2023-06-22T10:48:07;27.38;41.22
75363;DHT22;64122;51.988;5.892;2023-06-22T10:50:37;27.25;41.19
75363;DHT22;64122;51.988;5.892;2023-06-22T10:53:09;27.17;41.83
75363;DHT22;64122;51.988;5.892;2023-06-22T10:55:38;27.09;42.19
75363;DHT22;64122;51.988;5.892;2023-06-22T10:58:07;27.24;42.17
75363;DHT22;64122;51.988;5.892;2023-06-22T11:00:36;27.28;42.23
75363;DHT22;64122;51.988;5.892;2023-06-22T11:03:05;27.30;42.65
75363;DHT22;64122;51.988;5.892;2023-06-22T11:05:35;27.36;43.03
75363;DHT22;64122;51.988;5.892;2023-06-22T11:08:04;27.40;42.57
75363;DHT22;64122;51.988;5.892;2023-06-22T11:10:36;27.30;42.90
75363;DHT22;64122;51.988;5.892;2023-06-22T11:13:05;27.25;43.02
75363;DHT22;64122;51.988;5.892;2023-06-22T11:15:36;27.19;43.00
75363;DHT22;64122;51.988;5.892;2023-06-22T11:18:05;27.13;43.25
75363;DHT22;64122;51.988;5.892;2023-06-22T11:20:34;27.08;43.13
75363;DHT22;64122;51.988;5.892;2023-06-22T11:23:05;27.07;43.67
75363;DHT22;64122;51.988;5.892;2023-06-22T11:25:37;27.06;44.42
75363;DHT22;64122;51.988;5.892;2023-06-22T11:28:08;27.00;44.83
75363;DHT22;64122;51.988;5.892;2023-06-22T11:30:37;26.96;45.34
75363;DHT22;64122;51.988;5.892;2023-06-22T11:33:07;26.89;45.98
75363;DHT22;64122;51.988;5.892;2023-06-22T11:35:36;26.79;46.16
75363;DHT22;64122;51.988;5.892;2023-06-22T11:38:08;26.66;46.75
75363;DHT22;64122;51.988;5.892;2023-06-22T11:40:41;26.53;47.33
75363;DHT22;64122;51.988;5.892;2023-06-22T11:43:10;26.40;47.68
75363;DHT22;64122;51.988;5.892;2023-06-22T11:45:41;26.26;48.05
75363;DHT22;64122;51.988;5.892;2023-06-22T11:48:10;26.10;49.60
75363;DHT22;64122;51.988;5.892;2023-06-22T11:50:39;26.01;48.92
75363;DHT22;64122;51.988;5.892;2023-06-22T11:53:09;25.92;48.99
75363;DHT22;64122;51.988;5.892;2023-06-22T11:55:41;25.83;50.80
75363;DHT22;64122;51.988;5.892;2023-06-22T11:58:10;25.76;50.88
75363;DHT22;64122;51.988;5.892;2023-06-22T12:00:42;25.68;51.95
75363;DHT22;64122;51.988;5.892;2023-06-22T12:03:12;25.64;52.00
75363;DHT22;64122;51.988;5.892;2023-06-22T12:05:42;25.49;53.44
75363;DHT22;64122;51.988;5.892;2023-06-22T12:08:12;25.27;54.46
75363;DHT22;64122;51.988;5.892;2023-06-22T12:10:44;25.05;55.46
75363;DHT22;64122;51.988;5.892;2023-06-22T12:13:13;24.82;54.81
75363;DHT22;64122;51.988;5.892;2023-06-22T12:15:42;24.84;56.23
75363;DHT22;64122;51.988;5.892;2023-06-22T12:18:12;24.72;56.81
75363;DHT22;64122;51.988;5.892;2023-06-22T12:20:41;24.61;56.97
75363;DHT22;64122;51.988;5.892;2023-06-22T12:23:11;24.50;58.46
75363;DHT22;64122;51.988;5.892;2023-06-22T12:25:40;24.38;59.01
75363;DHT22;64122;51.988;5.892;2023-06-22T12:28:12;24.29;60.05
75363;DHT22;64122;51.988;5.892;2023-06-22T12:30:41;24.23;60.35
75363;DHT22;64122;51.988;5.892;2023-06-22T12:33:10;24.08;60.50
75363;DHT22;64122;51.988;5.892;2023-06-22T12:35:39;23.86;61.44
75363;DHT22;64122;51.988;5.892;2023-06-22T12:38:09;23.73;62.20
75363;DHT22;64122;51.988;5.892;2023-06-22T12:40:38;23.69;61.46
75363;DHT22;64122;51.988;5.892;2023-06-22T12:43:07;23.54;62.37
75363;DHT22;64122;51.988;5.892;2023-06-22T12:45:39;23.34;62.49
75363;DHT22;64122;51.988;5.892;2023-06-22T12:48:09;23.18;63.25
75363;DHT22;64122;51.988;5.892;2023-06-22T12:50:39;22.98;64.41
75363;DHT22;64122;51.988;5.892;2023-06-22T12:53:08;22.86;65.14
75363;DHT22;64122;51.988;5.892;2023-06-22T12:55:37;22.77;65.72
75363;DHT22;64122;51.988;5.892;2023-06-22T12:58:07;22.71;66.35
75363;DHT22;64122;51.988;5.892;2023-06-22T13:00:39;22.58;66.81
75363;DHT22;64122;51.988;5.892;2023-06-22T13:03:08;22.50;67.56
75363;DHT22;64122;51.988;5.892;2023-06-22T13:05:37;22.48;67.81
75363;DHT22;64122;51.988;5.892;2023-06-22T13:08:06;22.50;67.48
75363;DHT22;64122;51.988;5.892;2023-06-22T13:10:37;22.51;67.88
75363;DHT22;64122;51.988;5.892;2023-06-22T13:13:06;22.51;67.03
75363;DHT22;64122;51.988;5.892;2023-06-22T13:15:35;22.50;67.75
75363;DHT22;64122;51.988;5.892;2023-06-22T13:18:07;22.47;67.50
75363;DHT22;64122;51.988;5.892;2023-06-22T13:20:37;22.49;67.16
75363;DHT22;64122;51.988;5.892;2023-06-22T13:23:06;22.32;67.16
75363;DHT22;64122;51.988;5.892;2023-06-22T13:25:35;22.28;67.33
75363;DHT22;64122;51.988;5.892;2023-06-22T13:28:05;22.22;67.20
75363;DHT22;64122;51.988;5.892;2023-06-22T13:30:34;22.16;67.71
75363;DHT22;64122;51.988;5.892;2023-06-22T13:33:03;22.06;68.09
75363;DHT22;64122;51.988;5.892;2023-06-22T13:35:35;21.96;68.33
75363;DHT22;64122;51.988;5.892;2023-06-22T13:38:05;21.84;68.76
75363;DHT22;64122;51.988;5.892;2023-06-22T13:40:34;21.77;69.04
75363;DHT22;64122;51.988;5.892;2023-06-22T13:43:04;21.69;69.23
75363;DHT22;64122;51.988;5.892;2023-06-22T13:45:33;21.60;69.61
75363;DHT22;64122;51.988;5.892;2023-06-22T13:48:03;21.50;69.84
75363;DHT22;64122;51.988;5.892;2023-06-22T13:50:35;21.43;70.07
75363;DHT22;64122;51.988;5.892;2023-06-22T13:53:05;21.39;70.40
75363;DHT22;64122;51.988;5.892;2023-06-22T13:55:34;21.29;70.80
75363;DHT22;64122;51.988;5.892;2023-06-22T13:58:03;21.28;71.00
75363;DHT22;64122;51.988;5.892;2023-06-22T14:00:33;21.25;71.53
75363;DHT22;64122;51.988;5.892;2023-06-22T14:03:03;21.21;71.69
75363;DHT22;64122;51.988;5.892;2023-06-22T14:05:34;21.20;71.90
75363;DHT22;64122;51.988;5.892;2023-06-22T14:08:04;21.21;72.11
75363;DHT22;64122;51.988;5.892;2023-06-22T14:10:33;21.23;71.74
75363;DHT22;64122;51.988;5.892;2023-06-22T14:13:03;21.29;71.87
75363;DHT22;64122;51.988;5.892;2023-06-22T14:15:32;21.31;72.09
75363;DHT22;64122;51.988;5.892;2023-06-22T14:18:02;21.35;71.73
75363;DHT22;64122;51.988;5.892;2023-06-22T14:20:31;21.42;71.90
75363;DHT22;64122;51.988;5.892;2023-06-22T14:23:03;21.43;71.28
75363;DHT22;64122;51.988;5.892;2023-06-22T14:25:32;21.48;71.25
75363;DHT22;64122;51.988;5.892;2023-06-22T14:28:01;21.50;70.80
75363;DHT22;64122;51.988;5.892;2023-06-22T14:30:30;21.48;70.90
75363;DHT22;64122;51.988;5.892;2023-06-22T14:33:00;21.46;71.02
75363;DHT22;64122;51.988;5.892;2023-06-22T14:35:29;21.43;71.18
75363;DHT22;64122;51.988;5.892;2023-06-22T14:37:58;21.39;71.42
75363;DHT22;64122;51.988;5.892;2023-06-22T14:40:30;21.39;71.54
75363;DHT22;64122;51.988;5.892;2023-06-22T14:42:59;21.40;71.67
75363;DHT22;64122;51.988;5.892;2023-06-22T14:45:29;21.35;72.01
75363;DHT22;64122;51.988;5.892;2023-06-22T14:47:58;21.30;72.22
75363;DHT22;64122;51.988;5.892;2023-06-22T14:50:27;21.29;72.25
75363;DHT22;64122;51.988;5.892;2023-06-22T14:52:56;21.22;72.29
75363;DHT22;64122;51.988;5.892;2023-06-22T14:55:26;21.10;72.29
75363;DHT22;64122;51.988;5.892;2023-06-22T14:57:58;20.95;72.48
75363;DHT22;64122;51.988;5.892;2023-06-22T15:00:27;20.88;72.99
75363;DHT22;64122;51.988;5.892;2023-06-22T15:02:56;20.80;73.40
75363;DHT22;64122;51.988;5.892;2023-06-22T15:05:25;20.69;73.69
75363;DHT22;64122;51.988;5.892;2023-06-22T15:07:55;20.50;74.31
75363;DHT22;64122;51.988;5.892;2023-06-22T15:10:24;20.43;74.67
75363;DHT22;64122;51.988;5.892;2023-06-22T15:12:53;20.28;75.00
75363;DHT22;64122;51.988;5.892;2023-06-22T15:15:25;20.15;75.50
75363;DHT22;64122;51.988;5.892;2023-06-22T15:17:54;20.09;75.69
75363;DHT22;64122;51.988;5.892;2023-06-22T15:20:24;19.97;76.24
75363;DHT22;64122;51.988;5.892;2023-06-22T15:22:53;19.90;76.23
75363;DHT22;64122;51.988;5.892;2023-06-22T15:25:22;19.89;76.41
75363;DHT22;64122;51.988;5.892;2023-06-22T15:27:51;19.88;76.54
75363;DHT22;64122;51.988;5.892;2023-06-22T15:30:21;19.88;76.93
75363;DHT22;64122;51.988;5.892;2023-06-22T15:32:53;19.82;77.58
75363;DHT22;64122;51.988;5.892;2023-06-22T15:35:22;19.83;77.78
75363;DHT22;64122;51.988;5.892;2023-06-22T15:37:51;19.83;77.97
75363;DHT22;64122;51.988;5.892;2023-06-22T15:40:21;19.84;78.14
75363;DHT22;64122;51.988;5.892;2023-06-22T15:42:51;19.83;78.57
75363;DHT22;64122;51.988;5.892;2023-06-22T15:45:20;19.85;78.65
75363;DHT22;64122;51.988;5.892;2023-06-22T15:47:52;19.89;78.24
75363;DHT22;64122;51.988;5.892;2023-06-22T15:50:22;19.89;78.26
75363;DHT22;64122;51.988;5.892;2023-06-22T15:52:51;19.96;77.92
75363;DHT22;64122;51.988;5.892;2023-06-22T15:55:20;20.01;77.43
75363;DHT22;64122;51.988;5.892;2023-06-22T15:57:50;19.99;77.81
75363;DHT22;64122;51.988;5.892;2023-06-22T16:00:19;19.96;77.82
75363;DHT22;64122;51.988;5.892;2023-06-22T16:02:49;19.97;78.01
75363;DHT22;64122;51.988;5.892;2023-06-22T16:05:21;19.99;77.72
75363;DHT22;64122;51.988;5.892;2023-06-22T16:07:50;20.01;77.73
75363;DHT22;64122;51.988;5.892;2023-06-22T16:10:19;19.99;77.85
75363;DHT22;64122;51.988;5.892;2023-06-22T16:12:48;20.02;77.84
75363;DHT22;64122;51.988;5.892;2023-06-22T16:15:18;20.12;77.62
75363;DHT22;64122;51.988;5.892;2023-06-22T16:17:47;20.19;77.63
75363;DHT22;64122;51.988;5.892;2023-06-22T16:20:17;20.22;77.10
75363;DHT22;64122;51.988;5.892;2023-06-22T16:22:50;20.20;77.05
75363;DHT22;64122;51.988;5.892;2023-06-22T16:25:19;20.21;76.97
75363;DHT22;64122;51.988;5.892;2023-06-22T16:27:48;20.18;77.21
75363;DHT22;64122;51.988;5.892;2023-06-22T16:30:18;20.13;77.27
75363;DHT22;64122;51.988;5.892;2023-06-22T16:32:51;20.14;77.40
75363;DHT22;64122;51.988;5.892;2023-06-22T16:35:20;20.19;77.18
75363;DHT22;64122;51.988;5.892;2023-06-22T16:37:52;20.17;77.24
75363;DHT22;64122;51.988;5.892;2023-06-22T16:40:22;20.25;77.06
75363;DHT22;64122;51.988;5.892;2023-06-22T16:42:51;20.25;77.28
75363;DHT22;64122;51.988;5.892;2023-06-22T16:45:21;20.28;77.25
75363;DHT22;64122;51.988;5.892;2023-06-22T16:47:51;20.29;77.40
75363;DHT22;64122;51.988;5.892;2023-06-22T16:50:20;20.36;77.21
75363;DHT22;64122;51.988;5.892;2023-06-22T16:52:52;20.45;77.13
75363;DHT22;64122;51.988;5.892;2023-06-22T16:55:21;20.53;77.23
75363;DHT22;64122;51.988;5.892;2023-06-22T16:57:54;20.58;77.28
75363;DHT22;64122;51.988;5.892;2023-06-22T17:00:25;20.61;77.19
75363;DHT22;64122;51.988;5.892;2023-06-22T17:02:56;20.60;77.52
75363;DHT22;64122;51.988;5.892;2023-06-22T17:05:26;20.61;77.62
75363;DHT22;64122;51.988;5.892;2023-06-22T17:08:01;20.61;77.63
75363;DHT22;64122;51.988;5.892;2023-06-22T17:10:31;20.64;77.61
75363;DHT22;64122;51.988;5.892;2023-06-22T17:13:02;20.66;77.59
75363;DHT22;64122;51.988;5.892;2023-06-22T17:15:32;20.66;77.51
75363;DHT22;64122;51.988;5.892;2023-06-22T17:18:02;20.65;77.62
75363;DHT22;64122;51.988;5.892;2023-06-22T17:20:32;20.64;77.41
75363;DHT22;64122;51.988;5.892;2023-06-22T17:23:05;20.61;77.60
75363;DHT22;64122;51.988;5.892;2023-06-22T17:25:34;20.64;77.43
75363;DHT22;64122;51.988;5.892;2023-06-22T17:28:03;20.64;77.36
75363;DHT22;64122;51.988;5.892;2023-06-22T17:30:32;20.57;77.60
75363;DHT22;64122;51.988;5.892;2023-06-22T17:33:02;20.54;77.69
75363;DHT22;64122;51.988;5.892;2023-06-22T17:35:31;20.47;77.89
75363;DHT22;64122;51.988;5.892;2023-06-22T17:38:01;20.54;77.82
75363;DHT22;64122;51.988;5.892;2023-06-22T17:40:32;20.56;77.71
75363;DHT22;64122;51.988;5.892;2023-06-22T17:43:04;20.61;77.52
75363;DHT22;64122;51.988;5.892;2023-06-22T17:45:40;20.59;77.49
75363;DHT22;64122;51.988;5.892;2023-06-22T17:48:11;20.68;77.42
75363;DHT22;64122;51.988;5.892;2023-06-22T17:50:41;20.69;77.40
75363;DHT22;64122;51.988;5.892;2023-06-22T17:53:11;20.70;77.37
75363;DHT22;64122;51.988;5.892;2023-06-22T17:55:44;20.68;77.55
75363;DHT22;64122;51.988;5.892;2023-06-22T17:58:14;20.68;77.49
75363;DHT22;64122;51.988;5.892;2023-06-22T18:00:47;20.65;77.39
75363;DHT22;64122;51.988;5.892;2023-06-22T18:03:23;20.63;77.55
75363;DHT22;64122;51.988;5.892;2023-06-22T18:05:54;20.58;77.70
75363;DHT22;64122;51.988;5.892;2023-06-22T18:08:25;20.58;77.69
75363;DHT22;64122;51.988;5.892;2023-06-22T18:10:59;20.57;77.75
75363;DHT22;64122;51.988;5.892;2023-06-22T18:13:30;20.57;77.76
75363;DHT22;64122;51.988;5.892;2023-06-22T18:16:00;20.60;77.61
75363;DHT22;64122;51.988;5.892;2023-06-22T18:18:31;20.55;77.44
75363;DHT22;64122;51.988;5.892;2023-06-22T18:21:03;20.55;77.40
75363;DHT22;64122;51.988;5.892;2023-06-22T18:23:33;20.53;77.28
75363;DHT22;64122;51.988;5.892;2023-06-22T18:26:08;20.50;77.24
75363;DHT22;64122;51.988;5.892;2023-06-22T18:28:38;20.54;77.26
75363;DHT22;64122;51.988;5.892;2023-06-22T18:31:08;20.54;77.03
75363;DHT22;64122;51.988;5.892;2023-06-22T18:33:38;20.49;77.08
75363;DHT22;64122;51.988;5.892;2023-06-22T18:36:09;20.50;77.02
75363;DHT22;64122;51.988;5.892;2023-06-22T18:38:41;20.49;76.92
75363;DHT22;64122;51.988;5.892;2023-06-22T18:41:33;20.47;76.95
75363;DHT22;64122;51.988;5.892;2023-06-22T18:44:03;20.53;76.94
75363;DHT22;64122;51.988;5.892;2023-06-22T18:46:34;20.55;76.91
75363;DHT22;64122;51.988;5.892;2023-06-22T18:49:13;20.58;76.53
75363;DHT22;64122;51.988;5.892;2023-06-22T18:51:54;20.57;76.51
75363;DHT22;64122;51.988;5.892;2023-06-22T18:54:29;20.53;76.69
75363;DHT22;64122;51.988;5.892;2023-06-22T18:57:02;20.48;76.79
75363;DHT22;64122;51.988;5.892;2023-06-22T18:59:45;20.43;76.68
75363;DHT22;64122;51.988;5.892;2023-06-22T19:02:16;20.39;76.98
75363;DHT22;64122;51.988;5.892;2023-06-22T19:05:06;20.36;76.70
75363;DHT22;64122;51.988;5.892;2023-06-22T19:08:02;20.29;76.60
75363;DHT22;64122;51.988;5.892;2023-06-22T19:10:39;20.26;76.50
75363;DHT22;64122;51.988;5.892;2023-06-22T19:13:29;20.16;76.21
75363;DHT22;64122;51.988;5.892;2023-06-22T19:16:00;20.11;76.21
75363;DHT22;64122;51.988;5.892;2023-06-22T19:18:32;20.07;75.84
75363;DHT22;64122;51.988;5.892;2023-06-22T19:21:03;20.02;75.58
75363;DHT22;64122;51.988;5.892;2023-06-22T19:23:34;19.99;75.33
75363;DHT22;64122;51.988;5.892;2023-06-22T19:26:07;19.88;75.24
75363;DHT22;64122;51.988;5.892;2023-06-22T19:28:47;19.85;75.32
75363;DHT22;64122;51.988;5.892;2023-06-22T19:31:18;19.80;75.18
75363;DHT22;64122;51.988;5.892;2023-06-22T19:33:52;19.75;75.47
75363;DHT22;64122;51.988;5.892;2023-06-22T19:36:22;19.72;75.33
75363;DHT22;64122;51.988;5.892;2023-06-22T19:38:51;19.70;75.16
75363;DHT22;64122;51.988;5.892;2023-06-22T19:41:21;19.67;75.15
75363;DHT22;64122;51.988;5.892;2023-06-22T19:43:54;19.65;75.09
75363;DHT22;64122;51.988;5.892;2023-06-22T19:46:27;19.59;74.98
75363;DHT22;64122;51.988;5.892;2023-06-22T19:48:57;19.60;75.01
75363;DHT22;64122;51.988;5.892;2023-06-22T19:51:31;19.58;74.72
75363;DHT22;64122;51.988;5.892;2023-06-22T19:54:06;19.54;74.64
75363;DHT22;64122;51.988;5.892;2023-06-22T19:56:35;19.57;74.37
75363;DHT22;64122;51.988;5.892;2023-06-22T19:59:12;19.52;74.13
75363;DHT22;64122;51.988;5.892;2023-06-22T20:01:42;19.51;74.16
75363;DHT22;64122;51.988;5.892;2023-06-22T20:04:12;19.46;73.94
75363;DHT22;64122;51.988;5.892;2023-06-22T20:07:00;19.38;74.03
75363;DHT22;64122;51.988;5.892;2023-06-22T20:09:29;19.42;74.46
75363;DHT22;64122;51.988;5.892;2023-06-22T20:11:59;19.47;74.26
75363;DHT22;64122;51.988;5.892;2023-06-22T20:14:35;19.50;74.02
75363;DHT22;64122;51.988;5.892;2023-06-22T20:17:05;19.53;74.18
75363;DHT22;64122;51.988;5.892;2023-06-22T20:19:35;19.57;74.10
75363;DHT22;64122;51.988;5.892;2023-06-22T20:22:07;19.60;73.91
75363;DHT22;64122;51.988;5.892;2023-06-22T20:24:37;19.61;73.70
75363;DHT22;64122;51.988;5.892;2023-06-22T20:27:10;19.62;73.80
75363;DHT22;64122;51.988;5.892;2023-06-22T20:29:43;19.60;74.02
75363;DHT22;64122;51.988;5.892;2023-06-22T20:32:13;19.60;74.01
75363;DHT22;64122;51.988;5.892;2023-06-22T20:34:43;19.59;74.15
75363;DHT22;64122;51.988;5.892;2023-06-22T20:37:15;19.55;73.47
75363;DHT22;64122;51.988;5.892;2023-06-22T20:39:45;19.51;73.43
75363;DHT22;64122;51.988;5.892;2023-06-22T20:42:14;19.43;73.63
75363;DHT22;64122;51.988;5.892;2023-06-22T20:44:46;19.39;73.96
75363;DHT22;64122;51.988;5.892;2023-06-22T20:47:16;19.44;73.72
75363;DHT22;64122;51.988;5.892;2023-06-22T20:49:46;19.41;73.61
75363;DHT22;64122;51.988;5.892;2023-06-22T20:52:15;19.41;74.06
75363;DHT22;64122;51.988;5.892;2023-06-22T20:54:45;19.40;73.39
75363;DHT22;64122;51.988;5.892;2023-06-22T20:57:15;19.39;73.38
75363;DHT22;64122;51.988;5.892;2023-06-22T20:59:47;19.36;73.57
75363;DHT22;64122;51.988;5.892;2023-06-22T21:02:16;19.22;73.88
75363;DHT22;64122;51.988;5.892;2023-06-22T21:04:46;19.32;73.28
75363;DHT22;64122;51.988;5.892;2023-06-22T21:07:19;19.30;73.20
75363;DHT22;64122;51.988;5.892;2023-06-22T21:09:48;19.29;72.99
75363;DHT22;64122;51.988;5.892;2023-06-22T21:12:17;19.27;73.32